createdAt,value
2022-10-22T00:00:41.526Z,9.83
2022-10-22T00:06:36.299Z,10.47
2022-10-22T00:12:29.819Z,10.73
2022-10-22T00:18:23.182Z,9.90
2022-10-22T00:24:17.846Z,10.47
2022-10-22T00:30:12.111Z,9.90
2022-10-22T00:36:05.740Z,10.43
2022-10-22T00:42:00.966Z,9.40
2022-10-22T00:48:01.126Z,10.20
2022-10-22T00:53:58.157Z,9.40
2022-10-22T00:59:53.012Z,10.20
2022-10-22T01:05:53.970Z,9.57
2022-10-22T01:11:57.646Z,10.30
2022-10-22T01:18:00.670Z,9.73
2022-10-22T01:24:16.422Z,10.03
2022-10-22T01:30:13.602Z,8.20
2022-10-22T01:36:07.555Z,9.70
2022-10-22T01:42:00.577Z,10.20
2022-10-22T01:48:06.801Z,9.47
2022-10-22T01:54:03.973Z,9.80
2022-10-22T02:00:03.711Z,9.30
2022-10-22T02:06:05.828Z,9.00
2022-10-22T02:12:02.266Z,10.73
2022-10-22T02:17:58.202Z,8.77
2022-10-22T02:23:52.984Z,8.77
2022-10-22T02:29:55.308Z,8.90
2022-10-22T02:35:50.443Z,9.27
2022-10-22T02:41:48.597Z,6.50
2022-10-22T02:47:44.170Z,8.13
2022-10-22T02:53:37.580Z,7.90
2022-10-22T02:59:32.624Z,7.27
2022-10-22T03:05:31.358Z,8.67
2022-10-22T03:11:24.715Z,6.80
2022-10-22T03:17:19.418Z,6.17
2022-10-22T03:23:13.810Z,4.83
2022-10-22T03:29:07.382Z,6.90
2022-10-22T03:35:01.732Z,7.80
2022-10-22T03:40:55.196Z,7.37
2022-10-22T03:46:48.515Z,8.20
2022-10-22T03:52:43.121Z,9.57
2022-10-22T03:58:36.358Z,9.10
2022-10-22T04:04:29.685Z,10.60
2022-10-22T04:10:24.322Z,11.80
2022-10-22T04:16:20.284Z,11.93
2022-10-22T04:22:13.620Z,13.47
2022-10-22T04:28:09.078Z,12.10
2022-10-22T04:34:03.340Z,11.90
2022-10-22T04:39:58.182Z,13.20
2022-10-22T04:45:52.712Z,11.83
2022-10-22T04:51:46.047Z,12.57
2022-10-22T04:57:39.593Z,13.47
2022-10-22T05:03:34.511Z,13.27
2022-10-22T05:09:27.865Z,13.23
2022-10-22T05:15:20.899Z,13.47
2022-10-22T05:21:18.043Z,14.47
2022-10-22T05:27:11.482Z,15.60
2022-10-22T05:33:04.886Z,14.53
2022-10-22T05:39:00.191Z,14.00
2022-10-22T05:44:53.092Z,12.40
2022-10-22T05:50:46.240Z,11.90
2022-10-22T05:56:40.605Z,12.43
2022-10-22T06:02:33.950Z,11.50
2022-10-22T06:08:27.456Z,12.70
2022-10-22T06:14:22.872Z,12.80
2022-10-22T06:20:17.038Z,12.87
2022-10-22T06:26:11.813Z,12.43
2022-10-22T06:32:06.610Z,13.07
2022-10-22T06:37:59.515Z,12.47
2022-10-22T06:43:52.422Z,13.67
2022-10-22T06:49:47.287Z,12.80
2022-10-22T06:55:40.645Z,13.77
2022-10-22T07:01:35.538Z,12.67
2022-10-22T07:07:30.264Z,12.97
2022-10-22T07:13:24.023Z,11.73
2022-10-22T07:19:17.326Z,11.47
2022-10-22T07:25:12.308Z,11.83
2022-10-22T07:31:05.278Z,9.67
2022-10-22T07:36:58.594Z,11.00
2022-10-22T07:42:53.329Z,11.07
2022-10-22T07:48:46.646Z,8.77
2022-10-22T07:54:40.134Z,10.80
2022-10-22T08:00:34.882Z,9.87
2022-10-22T08:06:28.207Z,11.93
2022-10-22T08:12:21.794Z,11.00
2022-10-22T08:18:17.207Z,10.23
2022-10-22T08:24:10.771Z,10.20
2022-10-22T08:30:04.947Z,9.67
2022-10-22T08:35:59.809Z,9.67
2022-10-22T08:42:06.333Z,9.80
2022-10-22T08:48:10.926Z,9.13
2022-10-22T08:54:30.220Z,9.00
2022-10-22T09:00:30.113Z,8.60
2022-10-22T09:06:26.137Z,9.33
2022-10-22T09:12:23.376Z,8.73
2022-10-22T09:18:28.508Z,8.20
2022-10-22T09:24:32.978Z,7.47
2022-10-22T09:30:30.418Z,7.60
2022-10-22T09:36:24.734Z,6.33
2022-10-22T09:42:20.097Z,5.50
2022-10-22T09:48:26.729Z,6.17
2022-10-22T09:54:22.784Z,5.90
2022-10-22T10:00:21.473Z,5.73
2022-10-22T10:06:20.060Z,4.73
2022-10-22T10:12:25.833Z,5.27
2022-10-22T10:18:29.195Z,5.00
2022-10-22T10:24:31.265Z,5.27
2022-10-22T10:30:25.695Z,4.80
2022-10-22T10:36:26.226Z,3.73
2022-10-22T10:42:32.301Z,3.60
2022-10-22T10:48:46.753Z,4.27
2022-10-22T10:54:48.349Z,4.00
2022-10-22T11:00:52.016Z,4.40
2022-10-22T11:06:46.989Z,4.50
2022-10-22T11:12:43.895Z,3.30
2022-10-22T11:18:43.373Z,3.10
2022-10-22T11:24:40.996Z,2.80
2022-10-22T11:30:37.261Z,2.60
2022-10-22T11:36:33.762Z,2.80
2022-10-22T11:42:35.097Z,2.73
2022-10-22T11:48:30.905Z,3.57
2022-10-22T11:54:42.745Z,2.10
2022-10-22T12:00:41.717Z,2.20
2022-10-22T12:06:56.211Z,2.20
2022-10-22T12:12:58.199Z,2.23
2022-10-22T12:25:49.221Z,1.90
2022-10-22T12:31:51.473Z,2.23
2022-10-22T12:37:46.831Z,2.37
2022-10-22T12:43:41.078Z,2.10
2022-10-22T12:49:40.109Z,2.03
2022-10-22T12:55:35.903Z,2.73
2022-10-22T13:01:33.492Z,2.17
2022-10-22T13:07:38.860Z,2.00
2022-10-22T13:13:34.742Z,2.37
2022-10-22T13:19:47.546Z,2.77
2022-10-22T13:25:42.339Z,2.00
2022-10-22T13:31:38.198Z,2.77
2022-10-22T13:37:33.154Z,2.53
2022-10-22T13:43:27.941Z,3.40
2022-10-22T13:49:23.759Z,2.90
2022-10-22T13:55:21.098Z,2.23
2022-10-22T14:01:22.038Z,2.27
2022-10-22T14:07:16.864Z,2.37
2022-10-22T14:13:11.893Z,2.27
2022-10-22T14:19:09.533Z,2.30
2022-10-22T14:25:02.470Z,2.90
2022-10-22T14:30:56.185Z,2.27
2022-10-22T14:36:50.790Z,2.10
2022-10-22T14:42:45.618Z,2.10
2022-10-22T14:48:38.894Z,1.93
2022-10-22T14:54:33.551Z,2.93
2022-10-22T15:00:26.996Z,1.73
2022-10-22T15:53:07.213Z,2.40
2022-10-22T15:59:03.251Z,3.13
2022-10-22T16:04:56.200Z,2.07
2022-10-22T16:10:51.015Z,2.17
2022-10-22T16:16:45.368Z,1.80
2022-10-22T16:22:38.382Z,1.80
2022-10-22T16:34:30.922Z,2.30
2022-10-22T16:49:22.331Z,1.70
2022-10-22T16:55:46.053Z,1.87
2022-10-22T17:01:41.193Z,1.93
2022-10-22T17:23:29.349Z,3.40
2022-10-22T17:29:23.127Z,2.80
2022-10-22T17:35:17.163Z,3.13
2022-10-22T17:41:17.777Z,3.70
2022-10-22T18:17:54.174Z,4.10
2022-10-22T18:23:47.983Z,3.17
2022-10-22T18:29:41.299Z,3.13
2022-10-22T18:35:36.335Z,3.37
2022-10-22T18:41:31.094Z,3.27
2022-10-22T18:47:23.950Z,3.00
2022-10-22T18:53:18.584Z,3.77
2022-10-22T18:59:17.954Z,3.60
2022-10-22T19:05:11.338Z,4.23
2022-10-22T19:11:11.278Z,3.23
2022-10-22T19:17:04.605Z,4.80
2022-10-22T19:22:57.947Z,4.27
2022-10-22T19:28:52.666Z,3.40
2022-10-22T19:34:46.809Z,3.67
2022-10-22T19:40:42.310Z,3.97
2022-10-22T19:46:36.682Z,3.47
2022-10-22T19:52:29.686Z,4.30
2022-10-22T19:58:22.948Z,3.80
2022-10-22T20:04:18.642Z,3.20
2022-10-22T20:10:12.352Z,4.00
2022-10-22T20:16:06.471Z,3.33
2022-10-22T20:22:01.146Z,3.67
2022-10-22T20:27:54.401Z,3.60
2022-10-22T20:33:47.722Z,3.50
2022-10-22T20:39:42.417Z,3.60
2022-10-22T20:45:37.049Z,3.70
2022-10-22T21:06:55.607Z,3.40
2022-10-22T21:12:48.891Z,3.93
2022-10-22T21:18:42.523Z,3.23
2022-10-22T21:24:37.093Z,3.90
2022-10-22T21:30:30.352Z,3.70
2022-10-22T21:36:25.378Z,3.90
2022-10-22T21:42:20.047Z,4.03
2022-10-22T21:48:14.173Z,3.63
2022-10-22T21:54:07.525Z,4.30
2022-10-22T22:00:02.207Z,4.23
2022-10-22T22:06:00.065Z,4.37
2022-10-22T22:11:53.488Z,6.07
2022-10-22T22:17:48.247Z,5.40
2022-10-22T22:23:43.812Z,5.10
2022-10-22T22:29:37.148Z,5.57
2022-10-22T22:35:31.853Z,4.87
2022-10-22T22:41:25.459Z,5.03
2022-10-22T22:47:18.698Z,5.00
2022-10-22T22:53:13.332Z,4.77
2022-10-22T22:59:07.441Z,4.60
2022-10-22T23:05:00.719Z,5.30
2022-10-22T23:10:55.330Z,6.03
2022-10-22T23:16:50.821Z,5.53
2022-10-22T23:22:44.250Z,6.47
2022-10-22T23:28:39.179Z,5.90
2022-10-22T23:34:33.570Z,6.93
2022-10-22T23:40:26.843Z,6.03
2022-10-22T23:46:21.514Z,5.10
2022-10-22T23:52:14.470Z,6.33
2022-10-22T23:58:08.106Z,5.23
